createdAt,value
2023-04-11T00:03:13.380Z,17.4
2023-04-11T00:13:13.346Z,17.5
2023-04-11T00:23:13.796Z,17.3
2023-04-11T00:33:13.932Z,20.1
2023-04-11T00:43:13.852Z,17.4
2023-04-11T00:53:13.902Z,20.1
2023-04-11T01:03:13.563Z,17.7
2023-04-11T01:13:13.114Z,17.4
2023-04-11T01:23:14.109Z,17.2
2023-04-11T01:33:15.180Z,20
2023-04-11T01:43:15.040Z,17.4
2023-04-11T01:53:14.781Z,17.4
2023-04-11T02:03:14.170Z,17.7
2023-04-11T02:13:14.930Z,20.1
2023-04-11T02:23:14.716Z,17.7
2023-04-11T02:33:14.499Z,17.5
2023-04-11T02:43:13.860Z,20.2
2023-04-11T02:53:13.482Z,17.5
2023-04-11T03:03:08.917Z,17.5
2023-04-11T03:13:10.282Z,17.6
2023-04-11T03:23:09.356Z,17.6
2023-04-11T03:33:09.926Z,17.6
2023-04-11T03:43:10.631Z,17.3
2023-04-11T03:53:10.906Z,20.1
2023-04-11T04:03:12.583Z,17.5
2023-04-11T04:13:14.201Z,17.2
2023-04-11T04:23:15.210Z,17.4
2023-04-11T04:33:16.239Z,17.4
2023-04-11T04:43:16.390Z,17.5
2023-04-11T04:53:17.385Z,17.4
2023-04-11T05:03:18.038Z,20.1
2023-04-11T05:13:18.042Z,17.2
2023-04-11T05:23:17.457Z,17.4
2023-04-11T05:33:16.787Z,17.6
2023-04-11T05:43:16.711Z,17.4
2023-04-11T05:53:17.406Z,17.9
2023-04-11T06:03:17.770Z,19.8
2023-04-11T06:13:21.864Z,22.4
2023-04-11T06:23:28.448Z,22.4
2023-04-11T06:33:33.110Z,21.6
2023-04-11T06:43:37.980Z,23.1
2023-04-11T06:53:41.526Z,22.8
2023-04-11T07:03:42.066Z,21.4
2023-04-11T07:13:43.209Z,21.4
2023-04-11T07:23:43.807Z,23.6
2023-04-11T07:33:45.733Z,22.1
2023-04-11T07:43:49.097Z,22.4
2023-04-11T07:53:54.568Z,21.6
2023-04-11T08:04:03.127Z,23.6
2023-04-11T08:14:07.786Z,25.1
2023-04-11T08:24:11.281Z,23.1
2023-04-11T08:34:19.158Z,25.3
2023-04-11T08:44:20.256Z,21.4
2023-04-11T08:54:27.459Z,23.5
2023-04-11T09:03:11.146Z,24.2
2023-04-11T09:13:19.680Z,24.1
2023-04-11T09:23:27.351Z,25.2
2023-04-11T09:33:36.176Z,24.5
2023-04-11T09:43:39.260Z,22.1
2023-04-11T09:53:47.973Z,23.9
2023-04-11T10:03:55.021Z,23.7
2023-04-11T10:13:58.303Z,23.7
2023-04-11T10:24:08.281Z,24.3
2023-04-11T10:34:10.968Z,23.8
2023-04-11T10:44:15.603Z,24.3
2023-04-11T10:54:18.784Z,23.5
2023-04-11T11:04:19.691Z,22.9
2023-04-11T11:14:19.683Z,21.8
2023-04-11T11:24:20.922Z,25.1
2023-04-11T11:34:23.849Z,22.4
2023-04-11T11:44:26.173Z,24.3
2023-04-11T11:54:26.516Z,22.8
2023-04-11T12:04:30.230Z,25.2
2023-04-11T12:14:32.710Z,22.8
2023-04-11T12:24:33.914Z,24.8
2023-04-11T12:34:40.364Z,25.1
2023-04-11T12:44:45.106Z,25.4
2023-04-11T12:54:49.757Z,25.6
2023-04-11T13:04:54.236Z,25.3
2023-04-11T13:14:56.595Z,25.3
2023-04-11T13:24:57.978Z,25.2
2023-04-11T13:35:00.915Z,24.5
2023-04-11T13:45:02.667Z,24.1
2023-04-11T13:55:05.832Z,23.4
2023-04-11T14:05:08.381Z,23.8
2023-04-11T14:15:09.447Z,20.3
2023-04-11T14:25:12.100Z,23.1
2023-04-11T14:35:14.035Z,20.1
2023-04-11T14:45:14.367Z,20.1
2023-04-11T14:55:15.435Z,19.8
2023-04-11T15:03:09.377Z,19.9
2023-04-11T15:13:09.743Z,19.8
2023-04-11T15:23:10.927Z,22.3
2023-04-11T15:33:12.034Z,22.3
2023-04-11T15:43:11.834Z,19.9
2023-04-11T15:53:11.996Z,20
2023-04-11T16:03:13.844Z,19.5
2023-04-11T16:13:15.594Z,19.6
2023-04-11T16:23:16.489Z,21.8
2023-04-11T16:33:18.618Z,19.6
2023-04-11T16:43:18.527Z,21.5
2023-04-11T16:53:19.169Z,19.6
2023-04-11T17:03:19.409Z,19.6
2023-04-11T17:13:18.723Z,19.1
2023-04-11T17:23:18.678Z,19.4
2023-04-11T17:33:17.991Z,19.3
2023-04-11T17:43:17.500Z,19.4
2023-04-11T17:53:19.419Z,21.4
2023-04-11T18:03:19.648Z,19.1
2023-04-11T18:13:18.863Z,19.6
2023-04-11T18:23:20.242Z,19.3
2023-04-11T18:33:20.830Z,19.2
2023-04-11T18:43:20.323Z,21.4
2023-04-11T18:53:20.207Z,19.3
2023-04-11T19:03:20.830Z,18.6
2023-04-11T19:13:18.842Z,21.2
2023-04-11T19:23:19.556Z,18.8
2023-04-11T19:33:20.697Z,18.6
2023-04-11T19:43:21.243Z,18.6
2023-04-11T19:53:22.184Z,20.8
2023-04-11T20:03:22.588Z,18.5
2023-04-11T20:13:23.419Z,18.4
2023-04-11T20:23:22.954Z,18.6
2023-04-11T20:33:22.583Z,18.6
2023-04-11T20:43:23.253Z,18.3
2023-04-11T20:53:24.392Z,20.6
2023-04-11T21:03:08.738Z,18.3
2023-04-11T21:13:07.822Z,18.5
2023-04-11T21:23:08.971Z,18.6
2023-04-11T21:33:09.245Z,18.4
2023-04-11T21:43:09.733Z,20.9
2023-04-11T21:53:08.955Z,18.5
2023-04-11T22:03:09.662Z,18.3
2023-04-11T22:13:11.335Z,20.6
2023-04-11T22:23:12.301Z,18.3
2023-04-11T22:33:13.367Z,18.4
2023-04-11T22:43:14.786Z,18.1
2023-04-11T22:53:16.136Z,18.3
2023-04-11T23:03:15.555Z,18.3
2023-04-11T23:13:15.701Z,18.4
2023-04-11T23:23:15.454Z,18.3
2023-04-11T23:33:15.162Z,18.6
2023-04-11T23:43:15.174Z,18.3
2023-04-11T23:53:14.985Z,18.3
